Terminal Aerodrome Forecast
Issued by NWS

Home | Current Version | Previous Version | Text Only | Print | Product List | Glossary On
Versions: 1 2 3 4 5 6 7 8 9 10 11
000
FTUS43 KMQT 021700
TAFIWD
TAF
KIWD 021737Z 0218/0318 00000KT P6SM OVC015
     FM022200 36003KT P6SM OVC010
     FM022300 01003KT 6SM -SHRA OVC008
     FM030200 34004KT 4SM -RA OVC003
     FM031000 30008KT 3SM -RA OVC003
     FM031400 28011KT 6SM -SHRA OVC008
      AMD LTD TO CLD VIS AND WIND=

USA.gov is the U.S. government's official web portal to all federal, state and local government web resources and services.